Time;durP1;ratioP1;P1;durP2;ratioP2;P2;SDS_P1;SDS_P2;PMS_P1;PMS_P2;Temp;Humidity;BMP_temperature;BMP_pressure;BME280_temperature;BME280_humidity;BME280_pressure;Samples;Min_cycle;Max_cycle;Signal;HPM_P1;HPM_P2
2022/11/24 14:40:56;;;;;;;211.40;66.40;;;1.50;99.90;;;;;;5165149;27;20477;-67
2022/11/24 14:43:31;;;;;;;219.60;72.20;;;2.10;99.90;;;;;;5150764;27;20224;-71
2022/11/24 14:46:01;;;;;;;168.87;60.57;;;2.20;99.90;;;;;;5148580;27;20557;-65
2022/11/24 14:48:30;;;;;;;228.67;69.47;;;2.30;99.90;;;;;;5145857;27;20194;-66
2022/11/24 14:51:06;;;;;;;187.80;64.33;;;2.30;99.90;;;;;;5149981;27;20220;-66
2022/11/24 14:53:34;;;;;;;206.40;67.50;;;2.30;99.90;;;;;;5147768;27;20202;-65
2022/11/24 14:56:14;;;;;;;184.73;62.27;;;2.30;99.90;;;;;;5149245;27;20280;-64
2022/11/24 14:58:40;;;;;;;219.13;67.53;;;2.30;99.90;;;;;;5149617;27;20241;-67
2022/11/24 15:01:10;;;;;;;165.37;60.13;;;2.30;99.90;;;;;;5149962;27;20209;-64
2022/11/24 15:03:36;;;;;;;186.83;64.20;;;2.30;99.90;;;;;;5144865;27;20209;-63
2022/11/24 15:06:04;;;;;;;193.37;65.07;;;2.30;99.90;;;;;;5129258;28;20681;-66
2022/11/24 15:08:36;;;;;;;150.50;56.33;;;2.30;99.90;;;;;;5136766;27;20281;-67
2022/11/24 15:11:05;;;;;;;199.57;71.43;;;2.30;99.90;;;;;;5149527;27;20190;-65
2022/11/24 15:13:37;;;;;;;188.70;65.70;;;2.30;99.90;;;;;;5149382;27;20202;-68
2022/11/24 15:16:07;;;;;;;159.73;60.70;;;2.30;99.90;;;;;;5149987;27;20213;-64
2022/11/24 15:18:40;;;;;;;219.23;69.37;;;2.30;99.90;;;;;;5149406;27;20531;-66
2022/11/24 15:21:07;;;;;;;196.20;65.73;;;2.30;99.90;;;;;;5145228;27;20198;-65
2022/11/24 15:23:35;;;;;;;190.40;66.03;;;2.40;99.90;;;;;;5149214;27;20198;-66
2022/11/24 15:26:23;;;;;;;258.10;77.37;;;2.40;99.90;;;;;;5149528;27;20205;-66
2022/11/24 15:28:52;;;;;;;234.30;72.33;;;2.40;99.90;;;;;;5149615;27;20190;-65
2022/11/24 15:31:18;;;;;;;200.90;68.30;;;2.40;99.90;;;;;;5148762;27;20206;-67
2022/11/24 15:33:45;;;;;;;196.23;69.53;;;2.40;99.90;;;;;;5149228;27;20206;-68
2022/11/24 15:36:13;;;;;;;296.10;84.40;;;2.40;99.90;;;;;;5144738;27;20212;-66
2022/11/24 15:38:40;;;;;;;279.73;80.90;;;2.40;99.90;;;;;;5142358;27;20230;-66
2022/11/24 15:41:17;;;;;;;323.70;88.33;;;2.40;99.90;;;;;;5138462;27;20281;-65
2022/11/24 15:43:44;;;;;;;259.83;78.93;;;2.40;99.90;;;;;;5124896;27;20202;-66
2022/11/24 15:46:12;;;;;;;201.73;72.50;;;2.40;99.90;;;;;;5135080;27;20202;-68
2022/11/24 15:48:39;;;;;;;237.30;75.27;;;2.40;99.90;;;;;;5120925;27;20200;-66
2022/11/24 15:51:11;;;;;;;239.23;84.73;;;2.50;99.90;;;;;;5129815;27;20671;-67
2022/11/24 15:53:40;;;;;;;238.30;81.73;;;2.50;99.90;;;;;;5134620;27;20204;-67
2022/11/24 15:56:12;;;;;;;223.70;71.63;;;2.40;99.90;;;;;;5132450;27;20211;-67
2022/11/24 15:58:39;;;;;;;219.53;72.23;;;2.50;99.90;;;;;;5135255;27;20198;-67
2022/11/24 16:01:06;;;;;;;210.67;72.67;;;2.50;99.90;;;;;;5135645;27;20199;-67
2022/11/24 16:03:34;;;;;;;215.63;67.83;;;2.50;99.90;;;;;;5132013;27;21446;-68
2022/11/24 16:06:01;;;;;;;274.07;80.40;;;2.40;99.90;;;;;;5114913;28;20203;-68
2022/11/24 16:08:27;;;;;;;242.07;75.87;;;2.50;99.90;;;;;;5115879;27;20203;-66
2022/11/24 16:10:54;;;;;;;331.43;89.33;;;2.50;99.90;;;;;;5128714;27;20210;-68
2022/11/24 16:13:21;;;;;;;284.13;78.13;;;2.50;99.90;;;;;;5115072;27;20752;-66
2022/11/24 16:15:48;;;;;;;278.50;77.10;;;2.60;99.90;;;;;;5114487;28;20203;-67
2022/11/24 16:18:15;;;;;;;208.97;69.27;;;2.60;99.90;;;;;;5114014;28;20203;-66
2022/11/24 16:20:43;;;;;;;247.40;72.57;;;2.60;99.90;;;;;;5114107;28;20227;-68
